sensor_id;sensor_type;location;lat;lon;timestamp;temperature;humidity
28677;DHT22;15858;48.338;11.078;2022-08-19T00:01:57;19.00;99.90
28677;DHT22;15858;48.338;11.078;2022-08-19T00:04:28;19.00;99.90
28677;DHT22;15858;48.338;11.078;2022-08-19T00:06:55;18.90;99.90
28677;DHT22;15858;48.338;11.078;2022-08-19T00:09:23;19.00;99.90
28677;DHT22;15858;48.338;11.078;2022-08-19T00:11:51;19.00;99.90
28677;DHT22;15858;48.338;11.078;2022-08-19T00:14:18;19.00;99.90
28677;DHT22;15858;48.338;11.078;2022-08-19T00:16:46;19.10;99.90
28677;DHT22;15858;48.338;11.078;2022-08-19T00:19:13;19.10;99.90
28677;DHT22;15858;48.338;11.078;2022-08-19T00:21:39;19.10;99.90
28677;DHT22;15858;48.338;11.078;2022-08-19T00:24:08;19.20;99.90
28677;DHT22;15858;48.338;11.078;2022-08-19T00:26:35;19.20;99.90
28677;DHT22;15858;48.338;11.078;2022-08-19T00:29:03;19.20;99.90
28677;DHT22;15858;48.338;11.078;2022-08-19T00:31:30;19.20;99.90
28677;DHT22;15858;48.338;11.078;2022-08-19T00:33:57;19.20;99.90
28677;DHT22;15858;48.338;11.078;2022-08-19T00:36:23;19.20;99.90
28677;DHT22;15858;48.338;11.078;2022-08-19T00:38:50;19.10;99.90
28677;DHT22;15858;48.338;11.078;2022-08-19T00:41:19;19.10;99.90
28677;DHT22;15858;48.338;11.078;2022-08-19T00:44:03;19.10;99.90
28677;DHT22;15858;48.338;11.078;2022-08-19T00:46:30;19.10;99.90
28677;DHT22;15858;48.338;11.078;2022-08-19T00:48:57;19.10;99.90
28677;DHT22;15858;48.338;11.078;2022-08-19T00:51:27;19.10;99.90
28677;DHT22;15858;48.338;11.078;2022-08-19T00:53:57;19.10;99.90
28677;DHT22;15858;48.338;11.078;2022-08-19T00:56:25;19.10;99.90
28677;DHT22;15858;48.338;11.078;2022-08-19T00:58:52;19.10;99.90
28677;DHT22;15858;48.338;11.078;2022-08-19T01:01:20;19.10;99.90
28677;DHT22;15858;48.338;11.078;2022-08-19T01:03:47;19.00;99.90
28677;DHT22;15858;48.338;11.078;2022-08-19T01:06:25;19.10;99.90
28677;DHT22;15858;48.338;11.078;2022-08-19T01:08:54;19.00;99.90
28677;DHT22;15858;48.338;11.078;2022-08-19T01:11:21;19.10;99.90
28677;DHT22;15858;48.338;11.078;2022-08-19T01:13:48;19.10;99.90
28677;DHT22;15858;48.338;11.078;2022-08-19T01:16:18;19.00;99.90
28677;DHT22;15858;48.338;11.078;2022-08-19T01:18:45;19.00;99.90
28677;DHT22;15858;48.338;11.078;2022-08-19T01:21:21;18.90;99.90
28677;DHT22;15858;48.338;11.078;2022-08-19T01:23:48;18.90;99.90
28677;DHT22;15858;48.338;11.078;2022-08-19T01:26:18;18.90;99.90
28677;DHT22;15858;48.338;11.078;2022-08-19T01:28:47;18.90;99.90
28677;DHT22;15858;48.338;11.078;2022-08-19T01:31:21;18.80;99.90
28677;DHT22;15858;48.338;11.078;2022-08-19T01:33:53;18.80;99.90
28677;DHT22;15858;48.338;11.078;2022-08-19T01:36:28;18.80;99.90
28677;DHT22;15858;48.338;11.078;2022-08-19T01:38:56;18.80;99.90
28677;DHT22;15858;48.338;11.078;2022-08-19T01:41:23;18.80;99.90
28677;DHT22;15858;48.338;11.078;2022-08-19T01:43:51;18.70;99.90
28677;DHT22;15858;48.338;11.078;2022-08-19T01:46:39;18.80;99.90
28677;DHT22;15858;48.338;11.078;2022-08-19T01:49:06;18.70;99.90
28677;DHT22;15858;48.338;11.078;2022-08-19T01:51:33;18.80;99.90
28677;DHT22;15858;48.338;11.078;2022-08-19T01:54:06;18.80;99.90
28677;DHT22;15858;48.338;11.078;2022-08-19T01:56:33;18.70;99.90
28677;DHT22;15858;48.338;11.078;2022-08-19T01:59:02;18.80;99.90
28677;DHT22;15858;48.338;11.078;2022-08-19T02:01:30;18.70;99.90
28677;DHT22;15858;48.338;11.078;2022-08-19T02:03:57;18.70;99.90
28677;DHT22;15858;48.338;11.078;2022-08-19T02:06:24;18.70;99.90
28677;DHT22;15858;48.338;11.078;2022-08-19T02:08:52;18.60;99.90
28677;DHT22;15858;48.338;11.078;2022-08-19T02:11:26;18.60;99.90
28677;DHT22;15858;48.338;11.078;2022-08-19T02:13:54;18.60;99.90
28677;DHT22;15858;48.338;11.078;2022-08-19T02:16:21;18.60;99.90
28677;DHT22;15858;48.338;11.078;2022-08-19T02:18:48;18.60;99.90
28677;DHT22;15858;48.338;11.078;2022-08-19T02:21:17;18.60;99.90
28677;DHT22;15858;48.338;11.078;2022-08-19T02:23:44;18.60;99.90
28677;DHT22;15858;48.338;11.078;2022-08-19T02:26:11;18.60;99.90
28677;DHT22;15858;48.338;11.078;2022-08-19T02:28:39;18.60;99.90
28677;DHT22;15858;48.338;11.078;2022-08-19T02:31:10;18.60;99.90
28677;DHT22;15858;48.338;11.078;2022-08-19T02:33:37;18.60;99.90
28677;DHT22;15858;48.338;11.078;2022-08-19T02:36:05;18.60;99.90
28677;DHT22;15858;48.338;11.078;2022-08-19T02:38:32;18.60;99.90
28677;DHT22;15858;48.338;11.078;2022-08-19T02:41:02;18.60;99.90
28677;DHT22;15858;48.338;11.078;2022-08-19T02:43:31;18.60;99.90
28677;DHT22;15858;48.338;11.078;2022-08-19T02:46:00;18.50;99.90
28677;DHT22;15858;48.338;11.078;2022-08-19T02:48:27;18.40;99.90
28677;DHT22;15858;48.338;11.078;2022-08-19T02:50:54;18.40;99.90
28677;DHT22;15858;48.338;11.078;2022-08-19T02:53:23;18.40;99.90
28677;DHT22;15858;48.338;11.078;2022-08-19T02:55:50;18.40;99.90
28677;DHT22;15858;48.338;11.078;2022-08-19T02:58:18;18.40;99.90
28677;DHT22;15858;48.338;11.078;2022-08-19T03:00:50;18.40;99.90
28677;DHT22;15858;48.338;11.078;2022-08-19T03:03:18;18.50;99.90
28677;DHT22;15858;48.338;11.078;2022-08-19T03:05:46;18.50;99.90
28677;DHT22;15858;48.338;11.078;2022-08-19T03:08:22;18.50;99.90
28677;DHT22;15858;48.338;11.078;2022-08-19T03:10:49;18.40;99.90
28677;DHT22;15858;48.338;11.078;2022-08-19T03:13:17;18.40;99.90
28677;DHT22;15858;48.338;11.078;2022-08-19T03:15:46;18.40;99.90
28677;DHT22;15858;48.338;11.078;2022-08-19T03:18:14;18.50;99.90
28677;DHT22;15858;48.338;11.078;2022-08-19T03:20:46;18.40;99.90
28677;DHT22;15858;48.338;11.078;2022-08-19T03:23:14;18.40;99.90
28677;DHT22;15858;48.338;11.078;2022-08-19T03:25:43;18.50;99.90
28677;DHT22;15858;48.338;11.078;2022-08-19T03:28:11;18.50;99.90
28677;DHT22;15858;48.338;11.078;2022-08-19T03:30:39;18.40;99.90
28677;DHT22;15858;48.338;11.078;2022-08-19T03:33:10;18.50;99.90
28677;DHT22;15858;48.338;11.078;2022-08-19T03:35:43;18.40;99.90
28677;DHT22;15858;48.338;11.078;2022-08-19T03:38:10;18.40;99.90
28677;DHT22;15858;48.338;11.078;2022-08-19T03:40:37;18.40;99.90
28677;DHT22;15858;48.338;11.078;2022-08-19T03:43:03;18.40;99.90
28677;DHT22;15858;48.338;11.078;2022-08-19T03:45:30;18.40;99.90
28677;DHT22;15858;48.338;11.078;2022-08-19T03:47:56;18.40;99.90
28677;DHT22;15858;48.338;11.078;2022-08-19T03:50:23;18.50;99.90
28677;DHT22;15858;48.338;11.078;2022-08-19T03:52:51;18.40;99.90
28677;DHT22;15858;48.338;11.078;2022-08-19T03:55:18;18.50;99.90
28677;DHT22;15858;48.338;11.078;2022-08-19T03:57:45;18.50;99.90
28677;DHT22;15858;48.338;11.078;2022-08-19T04:00:12;18.40;99.90
28677;DHT22;15858;48.338;11.078;2022-08-19T04:02:41;18.40;99.90
28677;DHT22;15858;48.338;11.078;2022-08-19T04:05:07;18.50;99.90
28677;DHT22;15858;48.338;11.078;2022-08-19T04:07:34;18.40;99.90
28677;DHT22;15858;48.338;11.078;2022-08-19T04:10:01;18.40;99.90
28677;DHT22;15858;48.338;11.078;2022-08-19T04:12:28;18.40;99.90
28677;DHT22;15858;48.338;11.078;2022-08-19T04:14:55;18.50;99.90
28677;DHT22;15858;48.338;11.078;2022-08-19T04:17:21;18.50;99.90
28677;DHT22;15858;48.338;11.078;2022-08-19T04:19:48;18.40;99.90
28677;DHT22;15858;48.338;11.078;2022-08-19T04:22:15;18.50;99.90
28677;DHT22;15858;48.338;11.078;2022-08-19T04:24:41;18.60;99.90
28677;DHT22;15858;48.338;11.078;2022-08-19T04:27:08;18.60;99.90
28677;DHT22;15858;48.338;11.078;2022-08-19T04:29:34;18.60;99.90
28677;DHT22;15858;48.338;11.078;2022-08-19T04:32:02;18.50;99.90
28677;DHT22;15858;48.338;11.078;2022-08-19T04:34:35;18.50;99.90
28677;DHT22;15858;48.338;11.078;2022-08-19T04:37:22;18.60;99.90
28677;DHT22;15858;48.338;11.078;2022-08-19T04:39:48;18.40;99.90
28677;DHT22;15858;48.338;11.078;2022-08-19T04:42:17;18.50;99.90
28677;DHT22;15858;48.338;11.078;2022-08-19T04:44:44;18.50;99.90
28677;DHT22;15858;48.338;11.078;2022-08-19T04:47:12;18.50;99.90
28677;DHT22;15858;48.338;11.078;2022-08-19T04:49:38;18.40;99.90
28677;DHT22;15858;48.338;11.078;2022-08-19T04:52:05;18.50;99.90
28677;DHT22;15858;48.338;11.078;2022-08-19T04:54:31;18.40;99.90
28677;DHT22;15858;48.338;11.078;2022-08-19T04:57:03;18.50;99.90
28677;DHT22;15858;48.338;11.078;2022-08-19T04:59:31;18.40;99.90
28677;DHT22;15858;48.338;11.078;2022-08-19T05:01:57;18.50;99.90
28677;DHT22;15858;48.338;11.078;2022-08-19T05:04:24;18.40;99.90
28677;DHT22;15858;48.338;11.078;2022-08-19T05:06:50;18.50;99.90
28677;DHT22;15858;48.338;11.078;2022-08-19T05:09:22;18.40;99.90
28677;DHT22;15858;48.338;11.078;2022-08-19T05:11:49;18.30;99.90
28677;DHT22;15858;48.338;11.078;2022-08-19T05:14:15;18.40;99.90
28677;DHT22;15858;48.338;11.078;2022-08-19T05:16:42;18.40;99.90
28677;DHT22;15858;48.338;11.078;2022-08-19T05:19:08;18.40;99.90
28677;DHT22;15858;48.338;11.078;2022-08-19T05:21:36;18.40;99.90
28677;DHT22;15858;48.338;11.078;2022-08-19T05:24:04;18.50;99.90
28677;DHT22;15858;48.338;11.078;2022-08-19T05:26:31;18.50;99.90
28677;DHT22;15858;48.338;11.078;2022-08-19T05:28:58;18.40;99.90
28677;DHT22;15858;48.338;11.078;2022-08-19T05:31:26;18.40;99.90
28677;DHT22;15858;48.338;11.078;2022-08-19T05:33:52;18.40;99.90
28677;DHT22;15858;48.338;11.078;2022-08-19T05:36:19;18.40;99.90
28677;DHT22;15858;48.338;11.078;2022-08-19T05:38:46;18.40;99.90
28677;DHT22;15858;48.338;11.078;2022-08-19T05:41:14;18.50;99.90
28677;DHT22;15858;48.338;11.078;2022-08-19T05:43:40;18.50;99.90
28677;DHT22;15858;48.338;11.078;2022-08-19T05:46:07;18.50;99.90
28677;DHT22;15858;48.338;11.078;2022-08-19T05:48:35;18.50;99.90
28677;DHT22;15858;48.338;11.078;2022-08-19T05:51:05;18.50;99.90
28677;DHT22;15858;48.338;11.078;2022-08-19T05:53:33;18.50;99.90
28677;DHT22;15858;48.338;11.078;2022-08-19T05:56:12;18.50;99.90
28677;DHT22;15858;48.338;11.078;2022-08-19T05:58:39;18.50;99.90
28677;DHT22;15858;48.338;11.078;2022-08-19T06:01:11;18.50;99.90
28677;DHT22;15858;48.338;11.078;2022-08-19T06:03:38;18.50;99.90
28677;DHT22;15858;48.338;11.078;2022-08-19T06:06:06;18.50;99.90
28677;DHT22;15858;48.338;11.078;2022-08-19T06:08:35;18.50;99.90
28677;DHT22;15858;48.338;11.078;2022-08-19T06:11:15;18.60;99.90
28677;DHT22;15858;48.338;11.078;2022-08-19T06:13:43;18.60;99.90
28677;DHT22;15858;48.338;11.078;2022-08-19T06:16:10;18.60;99.90
28677;DHT22;15858;48.338;11.078;2022-08-19T06:18:36;18.60;99.90
28677;DHT22;15858;48.338;11.078;2022-08-19T06:21:03;18.60;99.90
28677;DHT22;15858;48.338;11.078;2022-08-19T06:23:30;18.60;99.90
28677;DHT22;15858;48.338;11.078;2022-08-19T06:25:56;18.60;99.90
28677;DHT22;15858;48.338;11.078;2022-08-19T06:28:23;18.60;99.90
28677;DHT22;15858;48.338;11.078;2022-08-19T06:30:50;18.60;99.90
28677;DHT22;15858;48.338;11.078;2022-08-19T06:33:16;18.60;99.90
28677;DHT22;15858;48.338;11.078;2022-08-19T06:35:44;18.60;99.90
28677;DHT22;15858;48.338;11.078;2022-08-19T06:38:15;18.60;99.90
28677;DHT22;15858;48.338;11.078;2022-08-19T06:40:42;18.60;99.90
28677;DHT22;15858;48.338;11.078;2022-08-19T06:43:09;18.60;99.90
28677;DHT22;15858;48.338;11.078;2022-08-19T06:45:37;18.60;99.90
28677;DHT22;15858;48.338;11.078;2022-08-19T06:48:05;18.70;99.90
28677;DHT22;15858;48.338;11.078;2022-08-19T06:50:31;18.60;99.90
28677;DHT22;15858;48.338;11.078;2022-08-19T06:52:58;18.60;99.90
28677;DHT22;15858;48.338;11.078;2022-08-19T06:55:29;18.70;99.90
28677;DHT22;15858;48.338;11.078;2022-08-19T06:58:02;18.60;99.90
28677;DHT22;15858;48.338;11.078;2022-08-19T07:00:28;18.60;99.90
28677;DHT22;15858;48.338;11.078;2022-08-19T07:03:00;18.70;99.90
28677;DHT22;15858;48.338;11.078;2022-08-19T07:05:31;18.60;99.90
28677;DHT22;15858;48.338;11.078;2022-08-19T07:07:58;18.60;99.90
28677;DHT22;15858;48.338;11.078;2022-08-19T07:10:30;18.60;99.90
28677;DHT22;15858;48.338;11.078;2022-08-19T07:12:57;18.60;99.90
28677;DHT22;15858;48.338;11.078;2022-08-19T07:15:23;18.60;99.90
28677;DHT22;15858;48.338;11.078;2022-08-19T07:17:50;18.60;99.90
28677;DHT22;15858;48.338;11.078;2022-08-19T07:20:18;18.70;99.90
28677;DHT22;15858;48.338;11.078;2022-08-19T07:22:45;18.70;99.90
28677;DHT22;15858;48.338;11.078;2022-08-19T07:25:12;18.70;99.90
28677;DHT22;15858;48.338;11.078;2022-08-19T07:27:38;18.80;99.90
28677;DHT22;15858;48.338;11.078;2022-08-19T07:30:07;18.80;99.90
28677;DHT22;15858;48.338;11.078;2022-08-19T07:32:37;18.80;99.90
28677;DHT22;15858;48.338;11.078;2022-08-19T07:35:04;18.80;99.90
28677;DHT22;15858;48.338;11.078;2022-08-19T07:37:31;18.80;99.90
28677;DHT22;15858;48.338;11.078;2022-08-19T07:40:00;18.80;99.90
28677;DHT22;15858;48.338;11.078;2022-08-19T07:42:27;18.70;99.90
28677;DHT22;15858;48.338;11.078;2022-08-19T07:44:53;18.70;99.90
28677;DHT22;15858;48.338;11.078;2022-08-19T07:47:20;18.70;99.90
28677;DHT22;15858;48.338;11.078;2022-08-19T07:50:10;18.70;99.90
28677;DHT22;15858;48.338;11.078;2022-08-19T07:52:37;18.70;99.90
28677;DHT22;15858;48.338;11.078;2022-08-19T07:55:06;18.60;99.90
28677;DHT22;15858;48.338;11.078;2022-08-19T07:57:53;18.60;99.90
28677;DHT22;15858;48.338;11.078;2022-08-19T08:00:19;18.60;99.90
28677;DHT22;15858;48.338;11.078;2022-08-19T08:02:50;18.70;99.90
28677;DHT22;15858;48.338;11.078;2022-08-19T08:05:20;18.70;99.90
28677;DHT22;15858;48.338;11.078;2022-08-19T08:07:47;18.70;99.90
28677;DHT22;15858;48.338;11.078;2022-08-19T08:10:13;18.70;99.90
28677;DHT22;15858;48.338;11.078;2022-08-19T08:12:46;18.60;99.90
28677;DHT22;15858;48.338;11.078;2022-08-19T08:15:33;18.60;99.90
28677;DHT22;15858;48.338;11.078;2022-08-19T08:18:05;18.50;99.90
28677;DHT22;15858;48.338;11.078;2022-08-19T08:20:33;18.60;99.90
28677;DHT22;15858;48.338;11.078;2022-08-19T08:23:01;18.60;99.90
28677;DHT22;15858;48.338;11.078;2022-08-19T08:25:28;18.60;99.90
28677;DHT22;15858;48.338;11.078;2022-08-19T08:27:58;18.70;99.90
28677;DHT22;15858;48.338;11.078;2022-08-19T08:30:25;18.60;99.90
28677;DHT22;15858;48.338;11.078;2022-08-19T08:32:56;18.50;99.90
28677;DHT22;15858;48.338;11.078;2022-08-19T08:35:24;18.50;99.90
28677;DHT22;15858;48.338;11.078;2022-08-19T08:37:53;18.50;99.90
28677;DHT22;15858;48.338;11.078;2022-08-19T08:40:28;18.60;99.90
28677;DHT22;15858;48.338;11.078;2022-08-19T08:43:06;18.60;99.90
28677;DHT22;15858;48.338;11.078;2022-08-19T08:45:43;18.70;99.90
28677;DHT22;15858;48.338;11.078;2022-08-19T08:48:41;18.70;99.90
28677;DHT22;15858;48.338;11.078;2022-08-19T08:51:16;18.60;99.90
28677;DHT22;15858;48.338;11.078;2022-08-19T08:53:49;18.60;99.90
28677;DHT22;15858;48.338;11.078;2022-08-19T08:56:21;18.60;99.90
28677;DHT22;15858;48.338;11.078;2022-08-19T08:59:12;18.60;99.90
28677;DHT22;15858;48.338;11.078;2022-08-19T09:01:41;18.60;99.90
28677;DHT22;15858;48.338;11.078;2022-08-19T09:04:08;18.60;99.90
28677;DHT22;15858;48.338;11.078;2022-08-19T09:06:40;18.60;99.90
28677;DHT22;15858;48.338;11.078;2022-08-19T09:09:46;18.60;99.90
28677;DHT22;15858;48.338;11.078;2022-08-19T09:12:38;18.70;99.90
28677;DHT22;15858;48.338;11.078;2022-08-19T09:15:10;18.70;99.90
28677;DHT22;15858;48.338;11.078;2022-08-19T09:17:38;18.70;99.90
28677;DHT22;15858;48.338;11.078;2022-08-19T09:20:21;18.70;99.90
28677;DHT22;15858;48.338;11.078;2022-08-19T09:22:48;18.70;99.90
28677;DHT22;15858;48.338;11.078;2022-08-19T09:25:17;18.80;99.90
28677;DHT22;15858;48.338;11.078;2022-08-19T09:27:55;18.80;99.90
28677;DHT22;15858;48.338;11.078;2022-08-19T09:30:34;18.80;99.90
28677;DHT22;15858;48.338;11.078;2022-08-19T09:33:01;18.80;99.90
28677;DHT22;15858;48.338;11.078;2022-08-19T09:35:29;18.70;99.90
28677;DHT22;15858;48.338;11.078;2022-08-19T09:37:58;18.70;99.90
28677;DHT22;15858;48.338;11.078;2022-08-19T09:40:27;18.70;99.90
28677;DHT22;15858;48.338;11.078;2022-08-19T09:42:57;18.70;99.90
28677;DHT22;15858;48.338;11.078;2022-08-19T09:45:24;18.80;99.90
28677;DHT22;15858;48.338;11.078;2022-08-19T09:47:51;18.80;99.90
28677;DHT22;15858;48.338;11.078;2022-08-19T09:50:21;18.80;99.90
28677;DHT22;15858;48.338;11.078;2022-08-19T09:52:48;18.80;99.90
28677;DHT22;15858;48.338;11.078;2022-08-19T09:55:24;18.80;99.90
28677;DHT22;15858;48.338;11.078;2022-08-19T09:57:58;18.80;99.90
28677;DHT22;15858;48.338;11.078;2022-08-19T10:00:24;18.80;99.90
28677;DHT22;15858;48.338;11.078;2022-08-19T10:02:51;18.80;99.90
28677;DHT22;15858;48.338;11.078;2022-08-19T10:05:18;18.90;99.90
28677;DHT22;15858;48.338;11.078;2022-08-19T10:07:52;18.90;99.90
28677;DHT22;15858;48.338;11.078;2022-08-19T10:10:22;18.90;99.90
28677;DHT22;15858;48.338;11.078;2022-08-19T10:12:50;18.80;99.90
28677;DHT22;15858;48.338;11.078;2022-08-19T10:15:16;18.80;99.90
28677;DHT22;15858;48.338;11.078;2022-08-19T10:17:54;18.80;99.90
28677;DHT22;15858;48.338;11.078;2022-08-19T10:20:21;18.70;99.90
28677;DHT22;15858;48.338;11.078;2022-08-19T10:22:47;18.70;99.90
28677;DHT22;15858;48.338;11.078;2022-08-19T10:25:17;18.70;99.90
28677;DHT22;15858;48.338;11.078;2022-08-19T10:27:44;18.70;99.90
28677;DHT22;15858;48.338;11.078;2022-08-19T10:30:21;18.70;99.90
28677;DHT22;15858;48.338;11.078;2022-08-19T10:32:50;18.70;99.90
28677;DHT22;15858;48.338;11.078;2022-08-19T10:35:17;18.70;99.90
28677;DHT22;15858;48.338;11.078;2022-08-19T10:37:47;18.60;99.90
28677;DHT22;15858;48.338;11.078;2022-08-19T10:40:23;18.60;99.90
28677;DHT22;15858;48.338;11.078;2022-08-19T10:42:50;18.60;99.90
28677;DHT22;15858;48.338;11.078;2022-08-19T10:45:16;18.60;99.90
28677;DHT22;15858;48.338;11.078;2022-08-19T10:47:43;18.50;99.90
28677;DHT22;15858;48.338;11.078;2022-08-19T10:50:10;18.50;99.90
28677;DHT22;15858;48.338;11.078;2022-08-19T10:52:38;18.40;99.90
28677;DHT22;15858;48.338;11.078;2022-08-19T10:55:15;18.40;99.90
28677;DHT22;15858;48.338;11.078;2022-08-19T10:57:42;18.30;99.90
28677;DHT22;15858;48.338;11.078;2022-08-19T11:00:27;18.30;99.90
28677;DHT22;15858;48.338;11.078;2022-08-19T11:02:54;18.30;99.90
28677;DHT22;15858;48.338;11.078;2022-08-19T11:05:21;18.20;99.90
28677;DHT22;15858;48.338;11.078;2022-08-19T11:07:50;18.30;99.90
28677;DHT22;15858;48.338;11.078;2022-08-19T11:10:17;18.40;99.90
28677;DHT22;15858;48.338;11.078;2022-08-19T11:12:48;18.30;99.90
28677;DHT22;15858;48.338;11.078;2022-08-19T11:15:15;18.30;99.90
28677;DHT22;15858;48.338;11.078;2022-08-19T11:17:42;18.30;99.90
28677;DHT22;15858;48.338;11.078;2022-08-19T11:20:13;18.40;99.90
28677;DHT22;15858;48.338;11.078;2022-08-19T11:22:41;18.40;99.90
28677;DHT22;15858;48.338;11.078;2022-08-19T11:25:09;18.40;99.90
28677;DHT22;15858;48.338;11.078;2022-08-19T11:27:40;18.30;99.90
28677;DHT22;15858;48.338;11.078;2022-08-19T11:30:08;18.30;99.90
28677;DHT22;15858;48.338;11.078;2022-08-19T11:32:39;18.50;99.90
28677;DHT22;15858;48.338;11.078;2022-08-19T11:35:12;18.50;99.90
28677;DHT22;15858;48.338;11.078;2022-08-19T11:37:39;18.50;99.90
28677;DHT22;15858;48.338;11.078;2022-08-19T11:40:06;18.50;99.90
28677;DHT22;15858;48.338;11.078;2022-08-19T11:42:33;18.50;99.90
28677;DHT22;15858;48.338;11.078;2022-08-19T11:45:00;18.50;99.90
28677;DHT22;15858;48.338;11.078;2022-08-19T11:47:27;18.50;99.90
28677;DHT22;15858;48.338;11.078;2022-08-19T11:49:53;18.50;99.90
28677;DHT22;15858;48.338;11.078;2022-08-19T11:52:20;18.50;99.90
28677;DHT22;15858;48.338;11.078;2022-08-19T11:54:47;18.60;99.90
28677;DHT22;15858;48.338;11.078;2022-08-19T11:57:14;18.60;99.90
28677;DHT22;15858;48.338;11.078;2022-08-19T11:59:40;18.60;99.90
28677;DHT22;15858;48.338;11.078;2022-08-19T12:02:07;18.70;99.90
28677;DHT22;15858;48.338;11.078;2022-08-19T12:04:34;18.70;99.90
28677;DHT22;15858;48.338;11.078;2022-08-19T12:07:01;18.70;99.90
28677;DHT22;15858;48.338;11.078;2022-08-19T12:09:27;18.70;99.90
28677;DHT22;15858;48.338;11.078;2022-08-19T12:11:56;18.80;99.90
28677;DHT22;15858;48.338;11.078;2022-08-19T12:14:23;18.90;99.90
28677;DHT22;15858;48.338;11.078;2022-08-19T12:16:49;18.90;99.90
28677;DHT22;15858;48.338;11.078;2022-08-19T12:19:17;18.90;99.90
28677;DHT22;15858;48.338;11.078;2022-08-19T12:21:48;18.90;99.90
28677;DHT22;15858;48.338;11.078;2022-08-19T12:24:15;19.10;99.90
28677;DHT22;15858;48.338;11.078;2022-08-19T12:26:42;19.10;99.90
28677;DHT22;15858;48.338;11.078;2022-08-19T12:29:19;19.10;99.90
28677;DHT22;15858;48.338;11.078;2022-08-19T12:31:49;19.20;99.90
28677;DHT22;15858;48.338;11.078;2022-08-19T12:34:16;19.20;99.90
28677;DHT22;15858;48.338;11.078;2022-08-19T12:36:43;19.10;99.90
28677;DHT22;15858;48.338;11.078;2022-08-19T12:39:09;19.20;99.90
28677;DHT22;15858;48.338;11.078;2022-08-19T12:41:38;19.20;99.90
28677;DHT22;15858;48.338;11.078;2022-08-19T12:44:17;19.10;99.90
28677;DHT22;15858;48.338;11.078;2022-08-19T12:46:46;19.10;99.90
28677;DHT22;15858;48.338;11.078;2022-08-19T12:49:19;19.10;99.90
28677;DHT22;15858;48.338;11.078;2022-08-19T12:52:07;19.00;99.90
28677;DHT22;15858;48.338;11.078;2022-08-19T12:54:36;18.90;99.90
28677;DHT22;15858;48.338;11.078;2022-08-19T12:57:07;18.90;99.90
28677;DHT22;15858;48.338;11.078;2022-08-19T12:59:35;18.90;99.90
28677;DHT22;15858;48.338;11.078;2022-08-19T13:02:06;18.90;99.90
28677;DHT22;15858;48.338;11.078;2022-08-19T13:04:34;18.80;99.90
28677;DHT22;15858;48.338;11.078;2022-08-19T13:07:01;18.80;99.90
28677;DHT22;15858;48.338;11.078;2022-08-19T13:09:28;18.90;99.90
28677;DHT22;15858;48.338;11.078;2022-08-19T13:11:55;19.00;99.90
28677;DHT22;15858;48.338;11.078;2022-08-19T13:14:21;19.00;99.90
28677;DHT22;15858;48.338;11.078;2022-08-19T13:16:48;19.10;99.90
28677;DHT22;15858;48.338;11.078;2022-08-19T13:19:14;19.10;99.90
28677;DHT22;15858;48.338;11.078;2022-08-19T13:21:41;19.10;99.90
28677;DHT22;15858;48.338;11.078;2022-08-19T13:24:08;19.10;99.90
28677;DHT22;15858;48.338;11.078;2022-08-19T13:26:34;19.10;99.90
28677;DHT22;15858;48.338;11.078;2022-08-19T13:29:01;19.10;99.90
28677;DHT22;15858;48.338;11.078;2022-08-19T13:31:31;19.10;99.90
28677;DHT22;15858;48.338;11.078;2022-08-19T13:33:58;19.10;99.90
28677;DHT22;15858;48.338;11.078;2022-08-19T13:36:24;19.10;99.90
28677;DHT22;15858;48.338;11.078;2022-08-19T13:38:51;19.00;99.90
28677;DHT22;15858;48.338;11.078;2022-08-19T13:41:18;19.10;99.90
28677;DHT22;15858;48.338;11.078;2022-08-19T13:43:44;19.20;99.90
28677;DHT22;15858;48.338;11.078;2022-08-19T13:46:11;19.20;99.90
28677;DHT22;15858;48.338;11.078;2022-08-19T13:48:38;19.20;99.90
28677;DHT22;15858;48.338;11.078;2022-08-19T13:51:05;19.20;99.90
28677;DHT22;15858;48.338;11.078;2022-08-19T13:53:32;19.30;99.90
28677;DHT22;15858;48.338;11.078;2022-08-19T13:55:58;19.30;99.90
28677;DHT22;15858;48.338;11.078;2022-08-19T13:58:25;19.30;99.90
28677;DHT22;15858;48.338;11.078;2022-08-19T14:00:51;19.30;99.90
28677;DHT22;15858;48.338;11.078;2022-08-19T14:03:18;19.20;99.90
28677;DHT22;15858;48.338;11.078;2022-08-19T14:05:45;19.20;99.90
28677;DHT22;15858;48.338;11.078;2022-08-19T14:08:12;19.20;99.90
28677;DHT22;15858;48.338;11.078;2022-08-19T14:10:38;19.30;99.90
28677;DHT22;15858;48.338;11.078;2022-08-19T14:13:05;19.30;99.90
28677;DHT22;15858;48.338;11.078;2022-08-19T14:15:32;19.30;99.90
28677;DHT22;15858;48.338;11.078;2022-08-19T14:17:58;19.40;99.90
28677;DHT22;15858;48.338;11.078;2022-08-19T14:20:26;19.30;99.90
28677;DHT22;15858;48.338;11.078;2022-08-19T14:22:53;19.20;99.90
28677;DHT22;15858;48.338;11.078;2022-08-19T14:25:23;19.10;99.90
28677;DHT22;15858;48.338;11.078;2022-08-19T14:27:50;19.10;99.90
28677;DHT22;15858;48.338;11.078;2022-08-19T14:30:29;19.00;99.90
28677;DHT22;15858;48.338;11.078;2022-08-19T14:32:57;19.10;99.90
28677;DHT22;15858;48.338;11.078;2022-08-19T14:35:25;19.00;99.90
28677;DHT22;15858;48.338;11.078;2022-08-19T14:37:52;19.10;99.90
28677;DHT22;15858;48.338;11.078;2022-08-19T14:40:19;19.10;99.90
28677;DHT22;15858;48.338;11.078;2022-08-19T14:42:46;19.10;99.90
28677;DHT22;15858;48.338;11.078;2022-08-19T14:45:13;19.20;99.90
28677;DHT22;15858;48.338;11.078;2022-08-19T14:47:39;19.20;99.90
28677;DHT22;15858;48.338;11.078;2022-08-19T14:50:09;19.10;99.90
28677;DHT22;15858;48.338;11.078;2022-08-19T14:52:44;19.10;99.90
28677;DHT22;15858;48.338;11.078;2022-08-19T14:55:11;19.10;99.90
28677;DHT22;15858;48.338;11.078;2022-08-19T14:57:39;19.10;99.90
28677;DHT22;15858;48.338;11.078;2022-08-19T15:00:06;19.10;99.90
28677;DHT22;15858;48.338;11.078;2022-08-19T15:02:33;19.00;99.90
28677;DHT22;15858;48.338;11.078;2022-08-19T15:05:01;19.10;99.90
28677;DHT22;15858;48.338;11.078;2022-08-19T15:07:28;19.10;99.90
28677;DHT22;15858;48.338;11.078;2022-08-19T15:09:55;19.00;99.90
28677;DHT22;15858;48.338;11.078;2022-08-19T15:12:22;18.90;99.90
28677;DHT22;15858;48.338;11.078;2022-08-19T15:14:49;19.00;99.90
28677;DHT22;15858;48.338;11.078;2022-08-19T15:17:18;18.90;99.90
28677;DHT22;15858;48.338;11.078;2022-08-19T15:19:45;18.90;99.90
28677;DHT22;15858;48.338;11.078;2022-08-19T15:22:12;18.90;99.90
28677;DHT22;15858;48.338;11.078;2022-08-19T15:24:39;18.90;99.90
28677;DHT22;15858;48.338;11.078;2022-08-19T15:27:13;18.90;99.90